createdAt,value
2023-06-13T00:01:12.425Z,100436.34
2023-06-13T00:04:14.762Z,100425.38
2023-06-13T00:07:16.852Z,100431.47
2023-06-13T00:10:19.282Z,100424.56
2023-06-13T00:13:21.562Z,100429.44
2023-06-13T00:16:26.545Z,100419.69
2023-06-13T00:19:29.884Z,100419.69
2023-06-13T00:22:32.172Z,100412.38
2023-06-13T00:25:34.727Z,100407.69
2023-06-13T00:28:37.069Z,100412.41
2023-06-13T00:31:39.462Z,100405.63
2023-06-13T00:34:41.843Z,100409.09
2023-06-13T00:37:43.950Z,100400.75
2023-06-13T00:40:49.220Z,100402.56
2023-06-13T00:43:51.759Z,100393.84
2023-06-13T00:46:57.476Z,100395.25
2023-06-13T00:49:59.469Z,100390.19
2023-06-13T00:53:05.814Z,100384.31
2023-06-13T00:56:08.471Z,100379.63
2023-06-13T00:59:10.827Z,100377.81
2023-06-13T01:02:16.834Z,100373.94
2023-06-13T01:05:19.242Z,100373.56
2023-06-13T01:08:23.540Z,100366.03
2023-06-13T01:11:51.468Z,100370.09
2023-06-13T01:15:03.830Z,100365.22
2023-06-13T01:18:08.658Z,100354.03
2023-06-13T01:21:13.297Z,100355.44
2023-06-13T01:24:25.857Z,100349.34
2023-06-13T01:27:31.697Z,100336.75
2023-06-13T01:30:36.312Z,100348.94
2023-06-13T01:33:39.190Z,100344.47
2023-06-13T01:36:42.576Z,100345.69
2023-06-13T01:39:45.924Z,100351.97
2023-06-13T01:42:48.480Z,100345.25
2023-06-13T01:46:00.843Z,100344.84
2023-06-13T01:49:21.440Z,100341.00
2023-06-13T01:52:58.202Z,100345.47
2023-06-13T01:56:04.942Z,100346.91
2023-06-13T01:59:14.587Z,100350.78
2023-06-13T02:02:16.953Z,100350.34
2023-06-13T02:05:20.134Z,100342.00
2023-06-13T02:08:24.046Z,100340.59
2023-06-13T02:11:27.163Z,100345.66
2023-06-13T02:14:34.009Z,100346.06
2023-06-13T02:17:37.107Z,100343.22
2023-06-13T02:20:39.274Z,100343.22
2023-06-13T02:23:41.663Z,100338.75
2023-06-13T02:26:45.826Z,100325.09
2023-06-13T02:29:48.041Z,100342.59
2023-06-13T02:32:51.242Z,100342.78
2023-06-13T02:35:53.205Z,100334.50
2023-06-13T02:38:56.667Z,100329.41
2023-06-13T02:41:58.713Z,100329.38
2023-06-13T02:45:00.866Z,100326.72
2023-06-13T02:48:04.585Z,100328.56
2023-06-13T02:51:09.986Z,100328.94
2023-06-13T02:54:12.528Z,100330.56
2023-06-13T02:57:15.625Z,100329.19
2023-06-13T03:00:19.222Z,100334.03
2023-06-13T03:03:27.994Z,100326.94
2023-06-13T03:06:31.819Z,100336.25
2023-06-13T03:09:35.307Z,100335.22
2023-06-13T03:12:39.297Z,100337.44
2023-06-13T03:15:44.414Z,100331.78
2023-06-13T03:18:48.613Z,100333.59
2023-06-13T03:21:50.760Z,100327.06
2023-06-13T03:24:53.741Z,100330.72
2023-06-13T03:27:55.935Z,100319.94
2023-06-13T03:30:58.531Z,100330.06
2023-06-13T03:34:00.572Z,100320.94
2023-06-13T03:37:05.274Z,100328.56
2023-06-13T03:40:07.973Z,100333.31
2023-06-13T03:43:11.430Z,100326.41
2023-06-13T03:46:16.123Z,100328.44
2023-06-13T03:49:20.040Z,100326.41
2023-06-13T03:52:22.133Z,100326.22
2023-06-13T03:55:27.725Z,100335.19
2023-06-13T03:58:29.664Z,100325.63
2023-06-13T04:01:31.668Z,100332.94
2023-06-13T04:04:34.698Z,100333.16
2023-06-13T04:07:37.415Z,100331.13
2023-06-13T04:10:39.482Z,100340.47
2023-06-13T04:13:42.332Z,100347.97
2023-06-13T04:16:45.179Z,100346.34
2023-06-13T04:19:47.207Z,100344.28
2023-06-13T04:22:53.403Z,100335.56
2023-06-13T04:25:55.461Z,100337.00
2023-06-13T04:28:59.747Z,100348.56
2023-06-13T04:32:03.384Z,100352.38
2023-06-13T04:35:05.889Z,100347.97
2023-06-13T04:38:09.790Z,100342.50
2023-06-13T04:41:15.291Z,100335.56
2023-06-13T04:44:19.536Z,100343.09
2023-06-13T04:47:26.116Z,100355.13
2023-06-13T04:50:30.168Z,100354.31
2023-06-13T04:53:34.185Z,100356.13
2023-06-13T04:56:42.000Z,100355.75
2023-06-13T04:59:48.174Z,100358.22
2023-06-13T05:02:52.572Z,100356.44
2023-06-13T05:05:55.768Z,100357.84
2023-06-13T05:09:01.021Z,100363.34
2023-06-13T05:12:05.114Z,100364.09
2023-06-13T05:15:07.353Z,100363.09
2023-06-13T05:18:13.596Z,100362.13
2023-06-13T05:21:18.502Z,100366.41
2023-06-13T05:24:21.036Z,100359.69
2023-06-13T05:27:24.130Z,100357.28
2023-06-13T05:30:27.439Z,100356.25
2023-06-13T05:33:32.439Z,100357.06
2023-06-13T05:36:34.613Z,100358.72
2023-06-13T05:39:39.684Z,100359.56
2023-06-13T05:42:41.696Z,100358.34
2023-06-13T05:45:43.716Z,100355.06
2023-06-13T05:48:46.409Z,100360.78
2023-06-13T05:51:48.623Z,100363.22
2023-06-13T05:54:50.414Z,100358.31
2023-06-13T05:57:52.730Z,100363.63
2023-06-13T06:00:59.131Z,100363.00
2023-06-13T06:04:04.096Z,100358.94
2023-06-13T06:07:18.084Z,100361.34
2023-06-13T06:10:22.955Z,100353.81
2023-06-13T06:13:25.223Z,100348.50
2023-06-13T06:16:27.510Z,100351.38
2023-06-13T06:19:30.212Z,100363.38
2023-06-13T06:22:34.833Z,100370.69
2023-06-13T06:25:37.389Z,100360.31
2023-06-13T06:28:40.504Z,100358.88
2023-06-13T06:31:43.937Z,100364.38
2023-06-13T06:34:46.012Z,100363.63
2023-06-13T06:37:48.915Z,100345.41
2023-06-13T06:40:51.432Z,100351.31
2023-06-13T06:43:53.685Z,100349.50
2023-06-13T06:46:55.750Z,100343.84
2023-06-13T06:49:58.864Z,100339.38
2023-06-13T06:53:01.548Z,100338.31
2023-06-13T06:56:03.663Z,100337.03
2023-06-13T06:59:08.553Z,100348.13
2023-06-13T07:02:17.507Z,100340.94
2023-06-13T07:05:19.628Z,100332.47
2023-06-13T07:08:24.774Z,100352.94
2023-06-13T07:11:28.946Z,100339.50
2023-06-13T07:14:41.233Z,100332.59
2023-06-13T07:17:45.044Z,100338.25
2023-06-13T07:20:53.115Z,100337.97
2023-06-13T07:24:07.611Z,100329.06
2023-06-13T07:27:13.481Z,100326.81
2023-06-13T07:30:19.830Z,100325.50
2023-06-13T07:33:25.277Z,100318.94
2023-06-13T07:36:28.648Z,100315.19
2023-06-13T07:39:30.826Z,100315.13
2023-06-13T07:42:35.089Z,100317.31
2023-06-13T07:45:37.234Z,100313.22
2023-06-13T07:48:39.879Z,100310.97
2023-06-13T07:51:41.874Z,100304.22
2023-06-13T07:54:47.306Z,100311.94
2023-06-13T08:00:56.532Z,100299.28
2023-06-13T08:04:02.323Z,100291.97
2023-06-13T08:07:08.814Z,100303.22
2023-06-13T08:10:12.841Z,100305.66
2023-06-13T08:13:15.282Z,100303.53
2023-06-13T08:16:18.207Z,100299.78
2023-06-13T08:19:23.404Z,100282.44
2023-06-13T08:22:31.086Z,100290.63
2023-06-13T08:25:36.692Z,100288.69
2023-06-13T08:28:39.127Z,100296.75
2023-06-13T08:31:49.275Z,100300.94
2023-06-13T08:34:56.432Z,100295.91
2023-06-13T08:37:59.642Z,100297.09
2023-06-13T08:41:02.038Z,100288.69
2023-06-13T08:44:05.308Z,100295.47
2023-06-13T08:47:20.117Z,100291.44
2023-06-13T08:50:36.102Z,100286.00
2023-06-13T08:53:43.139Z,100286.59
2023-06-13T08:56:52.540Z,100283.00
2023-06-13T09:00:01.713Z,100295.00
2023-06-13T09:03:06.045Z,100287.50
2023-06-13T09:06:14.176Z,100293.63
2023-06-13T09:09:21.267Z,100286.78
2023-06-13T09:12:34.330Z,100284.78
2023-06-13T09:16:22.853Z,100268.63
2023-06-13T09:19:29.410Z,100295.94
2023-06-13T09:22:46.243Z,100292.38
2023-06-13T09:25:50.126Z,100282.03
2023-06-13T09:28:59.586Z,100281.59
2023-06-13T09:32:03.843Z,100268.53
2023-06-13T09:35:06.569Z,100267.72
2023-06-13T09:38:08.839Z,100262.59
2023-06-13T09:41:15.358Z,100262.34
2023-06-13T09:44:18.387Z,100260.09
2023-06-13T09:47:25.581Z,100263.16
2023-06-13T09:50:31.198Z,100259.91
2023-06-13T09:53:35.589Z,100267.25
2023-06-13T09:56:38.208Z,100272.50
2023-06-13T09:59:40.575Z,100266.63
2023-06-13T10:02:49.737Z,100273.13
2023-06-13T10:06:11.303Z,100274.19
2023-06-13T10:13:08.241Z,100260.63
2023-06-13T10:16:14.136Z,100252.25
2023-06-13T10:19:26.422Z,100265.16
2023-06-13T10:22:35.146Z,100263.31
2023-06-13T10:25:39.038Z,100261.41
2023-06-13T10:29:34.136Z,100247.81
2023-06-13T10:33:17.197Z,100244.78
2023-06-13T10:36:25.707Z,100238.44
2023-06-13T10:40:09.269Z,100246.88
2023-06-13T10:43:31.320Z,100251.03
2023-06-13T10:46:37.387Z,100235.34
2023-06-13T10:49:42.570Z,100246.19
2023-06-13T10:52:50.643Z,100235.16
2023-06-13T10:56:02.684Z,100229.72
2023-06-13T10:59:16.980Z,100241.44
2023-06-13T11:02:22.122Z,100234.91
2023-06-13T11:05:40.959Z,100231.91
2023-06-13T11:08:44.902Z,100229.91
2023-06-13T11:12:13.703Z,100222.53
2023-06-13T11:15:30.092Z,100217.81
2023-06-13T11:18:35.510Z,100224.06
2023-06-13T11:21:43.518Z,100225.53
2023-06-13T11:24:45.441Z,100218.69
2023-06-13T11:27:53.351Z,100214.00
2023-06-13T11:30:56.393Z,100213.38
2023-06-13T11:34:04.378Z,100213.91
2023-06-13T11:37:12.026Z,100206.56
2023-06-13T11:40:25.323Z,100203.34
2023-06-13T11:43:30.907Z,100198.00
2023-06-13T11:46:33.145Z,100203.84
2023-06-13T11:49:35.268Z,100200.13
2023-06-13T11:52:38.599Z,100201.31
2023-06-13T11:55:40.963Z,100205.22
2023-06-13T11:58:44.033Z,100205.44
2023-06-13T12:01:51.502Z,100200.41
2023-06-13T12:04:53.863Z,100204.50
2023-06-13T12:07:56.180Z,100185.19
2023-06-13T12:10:59.582Z,100177.81
2023-06-13T12:14:04.519Z,100180.91
2023-06-13T12:17:11.202Z,100180.72
2023-06-13T12:20:18.210Z,100185.63
2023-06-13T12:23:23.540Z,100159.25
2023-06-13T12:26:32.545Z,100182.88
2023-06-13T12:29:35.840Z,100183.28
2023-06-13T12:32:39.840Z,100178.41
2023-06-13T12:35:59.163Z,100174.34
2023-06-13T12:39:43.743Z,100174.09
2023-06-13T12:42:46.865Z,100168.56
2023-06-13T12:45:51.632Z,100170.25
2023-06-13T12:48:56.425Z,100164.38
2023-06-13T12:51:58.606Z,100171.28
2023-06-13T12:55:05.328Z,100163.97
2023-06-13T12:58:35.970Z,100164.34
2023-06-13T13:01:38.263Z,100165.41
2023-06-13T13:04:42.109Z,100175.56
2023-06-13T13:07:44.492Z,100158.59
2023-06-13T13:10:49.758Z,100157.72
2023-06-13T13:13:51.899Z,100159.81
2023-06-13T13:16:54.979Z,100161.59
2023-06-13T13:20:00.829Z,100157.47
2023-06-13T13:26:34.491Z,100143.69
2023-06-13T13:29:40.746Z,100155.59
2023-06-13T13:32:43.446Z,100146.56
2023-06-13T13:35:46.074Z,100156.06
2023-06-13T13:38:48.854Z,100149.13
2023-06-13T13:41:51.128Z,100139.72
2023-06-13T13:44:56.630Z,100129.81
2023-06-13T13:47:59.937Z,100143.91
2023-06-13T13:51:02.201Z,100141.84
2023-06-13T13:54:07.196Z,100138.81
2023-06-13T13:57:11.339Z,100138.16
2023-06-13T14:00:14.510Z,100135.47
2023-06-13T14:03:18.946Z,100120.63
2023-06-13T14:06:21.147Z,100129.19
2023-06-13T14:09:26.226Z,100117.41
2023-06-13T14:12:28.244Z,100122.22
2023-06-13T14:15:31.569Z,100126.13
2023-06-13T14:18:34.996Z,100120.66
2023-06-13T14:21:37.951Z,100122.03
2023-06-13T14:24:40.276Z,100126.53
2023-06-13T14:27:42.457Z,100120.75
2023-06-13T14:30:45.326Z,100112.84
2023-06-13T14:33:47.530Z,100111.38
2023-06-13T14:36:54.510Z,100104.22
2023-06-13T14:39:56.943Z,100110.69
2023-06-13T14:42:59.318Z,100103.97
2023-06-13T14:46:05.399Z,100101.31
2023-06-13T14:49:09.686Z,100093.63
2023-06-13T14:52:12.008Z,100099.22
2023-06-13T14:55:15.076Z,100092.28
2023-06-13T14:58:17.058Z,100100.09
2023-06-13T15:01:23.133Z,100098.44
2023-06-13T15:04:26.113Z,100093.38
2023-06-13T15:07:36.092Z,100096.84
2023-06-13T15:10:38.211Z,100090.13
2023-06-13T15:13:44.160Z,100092.00
2023-06-13T15:16:51.079Z,100086.13
2023-06-13T15:19:56.030Z,100086.69
2023-06-13T15:22:58.114Z,100075.75
2023-06-13T15:26:01.478Z,100079.41
2023-06-13T15:29:05.883Z,100074.50
2023-06-13T15:32:08.438Z,100073.75
2023-06-13T15:35:13.855Z,100079.78
2023-06-13T15:38:15.936Z,100068.75
2023-06-13T15:41:18.080Z,100084.00
2023-06-13T15:44:20.459Z,100083.94
2023-06-13T15:47:23.410Z,100077.31
2023-06-13T15:50:26.402Z,100081.66
2023-06-13T15:53:28.334Z,100077.38
2023-06-13T15:56:30.552Z,100079.47
2023-06-13T15:59:34.248Z,100084.81
2023-06-13T16:02:38.432Z,100086.59
2023-06-13T16:05:44.143Z,100089.00
2023-06-13T16:08:47.878Z,100098.31
2023-06-13T16:11:52.917Z,100094.78
2023-06-13T16:14:56.389Z,100093.22
2023-06-13T16:17:58.999Z,100096.91
2023-06-13T16:21:01.014Z,100091.63
2023-06-13T16:24:07.694Z,100096.97
2023-06-13T16:27:09.732Z,100104.53
2023-06-13T16:30:12.594Z,100107.75
2023-06-13T16:33:16.981Z,100109.97
2023-06-13T16:36:19.310Z,100107.31
2023-06-13T16:39:23.451Z,100106.81
2023-06-13T16:42:25.602Z,100114.81
2023-06-13T16:45:27.581Z,100112.84
2023-06-13T16:48:30.191Z,100119.22
2023-06-13T16:51:33.608Z,100117.13
2023-06-13T16:54:36.698Z,100113.09
2023-06-13T16:57:38.707Z,100111.03
2023-06-13T17:00:41.110Z,100114.81
2023-06-13T17:03:43.943Z,100117.66
2023-06-13T17:06:46.599Z,100123.31
2023-06-13T17:09:48.862Z,100123.53
2023-06-13T17:12:52.887Z,100130.50
2023-06-13T17:15:55.066Z,100113.31
2023-06-13T17:18:57.924Z,100131.53
2023-06-13T17:22:00.279Z,100128.56
2023-06-13T17:25:02.649Z,100128.88
2023-06-13T17:28:05.078Z,100128.88
2023-06-13T17:31:07.211Z,100130.97
2023-06-13T17:34:10.902Z,100134.28
2023-06-13T17:37:13.874Z,100135.59
2023-06-13T17:40:16.643Z,100138.63
2023-06-13T17:43:18.622Z,100133.72
2023-06-13T17:46:20.879Z,100129.56
2023-06-13T17:49:23.209Z,100138.06
2023-06-13T17:52:25.186Z,100141.75
2023-06-13T17:55:27.544Z,100134.78
2023-06-13T17:58:30.302Z,100139.28
2023-06-13T18:01:33.816Z,100144.88
2023-06-13T18:04:36.015Z,100149.97
2023-06-13T18:07:38.168Z,100145.66
2023-06-13T18:10:40.528Z,100145.66
2023-06-13T18:13:42.541Z,100143.75
2023-06-13T18:16:44.727Z,100138.19
2023-06-13T18:19:47.607Z,100149.38
2023-06-13T18:22:49.656Z,100152.56
2023-06-13T18:25:53.826Z,100153.75
2023-06-13T18:28:56.043Z,100148.84
2023-06-13T18:31:58.039Z,100151.75
2023-06-13T18:35:02.276Z,100155.56
2023-06-13T18:38:06.262Z,100155.06
2023-06-13T18:41:08.551Z,100163.25
2023-06-13T18:44:12.011Z,100155.97
2023-06-13T18:47:14.141Z,100152.09
2023-06-13T18:50:18.874Z,100156.97
2023-06-13T18:53:20.973Z,100174.66
2023-06-13T18:56:27.166Z,100165.09
2023-06-13T18:59:29.121Z,100169.78
2023-06-13T19:02:32.730Z,100188.75
2023-06-13T19:05:35.484Z,100187.94
2023-06-13T19:08:37.780Z,100181.16
2023-06-13T19:11:40.146Z,100188.34
2023-06-13T19:14:42.548Z,100190.09
2023-06-13T19:17:45.054Z,100186.09
2023-06-13T19:20:48.206Z,100185.84
2023-06-13T19:23:50.332Z,100199.28
2023-06-13T19:26:52.446Z,100185.69
2023-06-13T19:29:54.600Z,100183.13
2023-06-13T19:32:56.904Z,100192.13
2023-06-13T19:36:00.851Z,100189.50
2023-06-13T19:39:03.610Z,100207.84
2023-06-13T19:42:06.958Z,100206.69
2023-06-13T19:45:10.348Z,100203.38
2023-06-13T19:48:17.491Z,100204.28
2023-06-13T19:51:20.580Z,100207.41
2023-06-13T19:54:23.375Z,100206.16
2023-06-13T19:57:28.454Z,100202.44
2023-06-13T20:00:34.206Z,100202.91
2023-06-13T20:03:36.558Z,100209.16
2023-06-13T20:06:38.924Z,100208.13
2023-06-13T20:09:41.391Z,100200.25
2023-06-13T20:12:44.093Z,100199.13
2023-06-13T20:15:46.878Z,100210.78
2023-06-13T20:18:48.935Z,100212.03
2023-06-13T20:21:51.233Z,100209.38
2023-06-13T20:24:53.601Z,100215.13
2023-06-13T20:27:56.499Z,100210.28
2023-06-13T20:30:59.627Z,100216.16
2023-06-13T20:34:03.020Z,100215.78
2023-06-13T20:37:06.844Z,100221.31
2023-06-13T20:40:11.746Z,100218.41
2023-06-13T20:43:14.096Z,100222.38
2023-06-13T20:46:18.027Z,100217.41
2023-06-13T20:49:20.999Z,100216.44
2023-06-13T20:52:23.446Z,100216.88
2023-06-13T20:55:26.607Z,100216.53
2023-06-13T20:58:30.838Z,100200.81
2023-06-13T21:01:34.189Z,100216.50
2023-06-13T21:04:36.438Z,100220.75
2023-06-13T21:07:40.149Z,100219.00
2023-06-13T21:10:42.399Z,100221.66
2023-06-13T21:13:44.372Z,100215.25
2023-06-13T21:16:47.769Z,100215.69
2023-06-13T21:19:53.237Z,100215.31
2023-06-13T21:22:58.186Z,100216.50
2023-06-13T21:26:01.682Z,100218.56
2023-06-13T21:29:05.251Z,100219.38
2023-06-13T21:32:08.133Z,100222.25
2023-06-13T21:35:11.256Z,100219.09
2023-06-13T21:38:13.550Z,100225.34
2023-06-13T21:41:16.403Z,100228.22
2023-06-13T21:44:19.627Z,100229.03
2023-06-13T21:47:24.121Z,100225.50
2023-06-13T21:50:26.173Z,100232.56
2023-06-13T21:53:28.531Z,100234.88
2023-06-13T21:56:30.648Z,100249.81
2023-06-13T21:59:34.848Z,100252.69
2023-06-13T22:02:38.911Z,100257.91
2023-06-13T22:05:41.537Z,100259.41
2023-06-13T22:08:43.701Z,100261.38
2023-06-13T22:11:46.371Z,100270.31
2023-06-13T22:14:48.698Z,100274.09
2023-06-13T22:17:55.122Z,100274.31
2023-06-13T22:20:57.331Z,100274.72
2023-06-13T22:24:00.273Z,100272.06
2023-06-13T22:27:02.326Z,100270.91
2023-06-13T22:30:07.671Z,100271.72
2023-06-13T22:33:09.732Z,100270.19
2023-06-13T22:36:12.518Z,100281.22
2023-06-13T22:39:14.551Z,100275.53
2023-06-13T22:42:17.391Z,100277.75
2023-06-13T22:45:20.770Z,100270.25
2023-06-13T22:48:23.354Z,100268.19
2023-06-13T22:51:26.370Z,100274.75
2023-06-13T22:54:28.667Z,100284.25
2023-06-13T22:57:32.128Z,100278.81
2023-06-13T23:00:34.193Z,100276.63
2023-06-13T23:03:36.886Z,100276.78
2023-06-13T23:06:39.046Z,100282.28
2023-06-13T23:09:41.260Z,100276.84
2023-06-13T23:12:43.329Z,100278.03
2023-06-13T23:15:45.658Z,100269.13
2023-06-13T23:18:47.833Z,100283.16
2023-06-13T23:21:49.820Z,100289.06
2023-06-13T23:24:52.883Z,100284.81
2023-06-13T23:27:56.775Z,100286.50
2023-06-13T23:30:59.315Z,100285.13
2023-06-13T23:34:04.265Z,100296.13
2023-06-13T23:37:06.446Z,100290.06
2023-06-13T23:40:12.315Z,100299.41
2023-06-13T23:43:14.710Z,100301.66
2023-06-13T23:46:16.859Z,100306.50
2023-06-13T23:49:18.788Z,100296.34
2023-06-13T23:52:21.676Z,100299.81
2023-06-13T23:55:23.832Z,100293.09
2023-06-13T23:58:28.950Z,100300.44
